Time;durP1;ratioP1;P1;durP2;ratioP2;P2;SDS_P1;SDS_P2;PMS_P1;PMS_P2;Temp;Humidity;BMP_temperature;BMP_pressure;BME280_temperature;BME280_humidity;BME280_pressure;Samples;Min_cycle;Max_cycle;Signal;HPM_P1;HPM_P2
2023/03/31 00:02:13;;;;;;;8.13;2.17;;;;;;;-145.69;100.00;52365.16;5076403;28;20282;-79
2023/03/31 00:04:44;;;;;;;10.03;2.00;;;;;;;-145.69;100.00;52355.28;5072446;28;20195;-79
2023/03/31 00:07:12;;;;;;;8.63;1.90;;;;;;;-145.69;100.00;52377.06;5075794;28;20357;-80
2023/03/31 00:09:44;;;;;;;12.70;2.83;;;;;;;-145.69;100.00;52331.50;5075703;28;20205;-80
2023/03/31 00:12:14;;;;;;;3.97;2.07;;;;;;;-145.69;100.00;52369.13;5075964;28;20226;-79
2023/03/31 00:14:42;;;;;;;7.87;1.73;;;;;;;-145.69;100.00;52357.25;5075772;28;20321;-80
2023/03/31 00:17:09;;;;;;;11.47;2.43;;;;;;;-145.69;100.00;52394.88;5075519;28;20194;-80
2023/03/31 00:19:35;;;;;;;8.90;2.00;;;;;;;-145.69;100.00;52381.00;5075714;28;20233;-81
2023/03/31 00:22:05;;;;;;;8.50;2.07;;;;;;;-145.69;100.00;52373.09;5075795;28;20203;-80
2023/03/31 00:24:38;;;;;;;6.73;2.10;;;;;;;-145.69;100.00;52361.22;5075635;28;20203;-80
2023/03/31 00:27:06;;;;;;;12.07;2.30;;;;;;;-145.69;100.00;52371.13;5075576;28;20633;-80
2023/03/31 00:29:35;;;;;;;8.10;2.40;;;;;;;-145.69;100.00;52365.16;5075579;28;20202;-80
2023/03/31 00:32:01;;;;;;;15.60;2.80;;;;;;;-145.69;100.00;52365.16;5075671;28;20230;-80
2023/03/31 00:34:28;;;;;;;7.53;2.10;;;;;;;-145.69;100.00;52353.28;5075396;28;20195;-80
2023/03/31 00:37:01;;;;;;;12.17;2.33;;;;;;;-145.69;100.00;52398.84;5075724;28;20290;-80
2023/03/31 00:39:34;;;;;;;7.77;2.23;;;;;;;-145.69;100.00;52355.28;5075802;28;20293;-80
2023/03/31 00:42:02;;;;;;;8.20;2.10;;;;;;;-145.69;100.00;52357.25;5075623;28;20198;-79
2023/03/31 00:44:33;;;;;;;11.13;2.33;;;;;;;-145.69;100.00;52345.38;5075087;28;20284;-80
2023/03/31 00:47:03;;;;;;;10.50;2.00;;;;;;;-145.69;100.00;52323.59;5075523;28;20207;-80
2023/03/31 00:49:35;;;;;;;5.57;1.93;;;;;;;-145.69;100.00;52351.31;5075593;28;20554;-80
2023/03/31 00:52:06;;;;;;;10.40;2.00;;;;;;;-145.69;100.00;52390.91;5075129;28;20233;-80
2023/03/31 00:54:35;;;;;;;9.57;2.00;;;;;;;-145.69;100.00;52353.28;5075279;28;20858;-80
2023/03/31 00:57:05;;;;;;;7.63;2.23;;;;;;;-145.69;100.00;52349.31;5074251;28;20620;-80
2023/03/31 00:59:36;;;;;;;5.80;2.10;;;;;;;-145.69;100.00;52402.78;5074759;28;20256;-80
2023/03/31 01:02:04;;;;;;;9.40;2.27;;;;;;;-145.69;100.00;52398.84;5075319;28;20206;-81
2023/03/31 01:04:35;;;;;;;7.77;2.23;;;;;;;-145.69;100.00;52383.00;5074697;28;20206;-80
2023/03/31 01:07:08;;;;;;;14.00;2.50;;;;;;;-145.69;100.00;52361.22;5074960;28;20207;-80
2023/03/31 01:09:37;;;;;;;7.37;1.90;;;;;;;-145.69;100.00;52357.25;5074947;28;20199;-80
2023/03/31 01:12:07;;;;;;;7.60;3.00;;;;;;;-145.69;100.00;52383.00;5074485;28;20254;-80
2023/03/31 01:14:35;;;;;;;9.53;2.33;;;;;;;-145.69;100.00;52377.06;5074973;28;20550;-80
2023/03/31 01:17:03;;;;;;;7.17;2.60;;;;;;;-145.69;97.74;52377.06;5075004;28;20584;-80
2023/03/31 01:19:51;;;;;;;13.73;2.53;;;;;;;-145.69;100.00;52369.13;5074942;28;20202;-79
2023/03/31 01:22:58;;;;;;;11.10;2.37;;;;;;;-145.69;100.00;52408.75;5074820;28;20210;-79
2023/03/31 01:25:53;;;;;;;17.17;2.93;;;;;;;-145.69;100.00;52361.22;5074470;28;20203;-79
2023/03/31 01:28:33;;;;;;;8.73;2.60;;;;;;;-145.69;100.00;52341.41;5074553;28;20201;-80
2023/03/31 01:31:35;;;;;;;13.97;3.07;;;;;;;-145.69;100.00;52351.31;5074774;28;20183;-80
2023/03/31 01:34:48;;;;;;;13.33;2.80;;;;;;;-145.69;100.00;52386.97;5054798;28;20202;-80
2023/03/31 01:37:50;;;;;;;10.37;2.30;;;;;;;-145.69;98.58;52321.59;4973555;28;20206;-79
2023/03/31 01:40:45;;;;;;;14.83;3.03;;;;;;;-145.69;100.00;52321.59;5059630;28;20191;-80
2023/03/31 01:43:17;;;;;;;11.57;2.80;;;;;;;-145.69;100.00;52353.28;5073817;28;20582;-80
2023/03/31 01:45:56;;;;;;;8.20;2.90;;;;;;;-145.69;100.00;52351.31;5074314;28;20224;-80
2023/03/31 01:48:35;;;;;;;11.67;3.10;;;;;;;-145.69;100.00;52367.16;5074135;28;20198;-80
2023/03/31 01:51:05;;;;;;;9.93;2.67;;;;;;;-145.69;100.00;52361.22;5074320;28;20281;-80
2023/03/31 01:53:37;;;;;;;12.43;3.23;;;;;;;-145.69;100.00;52357.25;5074184;28;20254;-79
2023/03/31 01:56:10;;;;;;;12.00;3.70;;;;;;;-145.69;100.00;52355.28;5073995;28;20808;-80
2023/03/31 01:58:40;;;;;;;9.17;3.43;;;;;;;-145.69;100.00;52349.31;5069887;28;20206;-80
2023/03/31 02:01:16;;;;;;;10.87;3.20;;;;;;;-145.69;100.00;52373.09;5053922;28;20289;-80
2023/03/31 02:03:48;;;;;;;12.73;3.27;;;;;;;-145.69;100.00;52361.22;5062065;28;20190;-79
2023/03/31 02:06:23;;;;;;;13.27;3.20;;;;;;;-145.69;100.00;52388.94;5073541;28;20277;-79
2023/03/31 02:08:56;;;;;;;15.00;4.13;;;;;;;-145.69;100.00;52400.81;5073390;28;20202;-79
2023/03/31 02:11:28;;;;;;;14.83;2.80;;;;;;;-145.69;100.00;52377.06;5073720;28;20199;-80
2023/03/31 02:14:00;;;;;;;18.87;3.17;;;;;;;-145.69;100.00;52386.97;5073381;28;20230;-79
2023/03/31 02:16:31;;;;;;;18.33;4.10;;;;;;;-145.69;100.00;52398.84;5073126;28;20198;-78
2023/03/31 02:19:01;;;;;;;11.03;3.13;;;;;;;-145.69;100.00;52381.00;5072739;28;20191;-79
2023/03/31 02:21:28;;;;;;;11.97;4.47;;;;;;;-145.69;100.00;52388.94;5073752;28;20202;-79
2023/03/31 02:23:56;;;;;;;10.83;3.60;;;;;;;-145.69;100.00;52373.09;5073710;28;20203;-79
2023/03/31 02:26:27;;;;;;;21.17;3.90;;;;;;;-145.69;100.00;52379.03;5073124;28;20552;-80
2023/03/31 02:28:55;;;;;;;11.37;4.00;;;;;;;-145.69;100.00;52369.13;5073569;28;20256;-79
2023/03/31 02:31:28;;;;;;;13.87;3.80;;;;;;;-145.69;100.00;52394.88;5072624;28;20206;-80
2023/03/31 02:33:55;;;;;;;17.17;4.03;;;;;;;-145.69;100.00;52394.88;5073228;28;20227;-79
2023/03/31 02:36:22;;;;;;;13.40;3.50;;;;;;;-145.69;100.00;52373.09;5073060;28;20236;-80
2023/03/31 02:38:53;;;;;;;10.93;4.20;;;;;;;-145.69;100.00;52418.63;5072603;28;20198;-79
2023/03/31 02:41:22;;;;;;;12.00;3.70;;;;;;;-145.69;100.00;52416.66;5073244;28;20213;-80
2023/03/31 02:43:50;;;;;;;16.07;3.80;;;;;;;-145.69;100.00;52434.47;5073060;28;20241;-80
2023/03/31 02:46:16;;;;;;;15.03;4.40;;;;;;;-145.69;100.00;52404.78;5073252;28;20195;-79
2023/03/31 02:48:48;;;;;;;13.13;4.00;;;;;;;-145.69;100.00;52408.75;5072744;28;20787;-80
2023/03/31 02:51:32;;;;;;;10.43;4.10;;;;;;;-145.69;100.00;52422.59;5073321;28;20194;-79
2023/03/31 02:54:15;;;;;;;11.03;3.93;;;;;;;-145.69;100.00;52452.31;5072810;28;20279;-79
2023/03/31 02:57:02;;;;;;;8.57;3.83;;;;;;;-145.69;100.00;52448.34;5073011;28;20201;-79
2023/03/31 02:59:47;;;;;;;9.90;3.83;;;;;;;-145.69;100.00;52424.59;5073068;28;20567;-79
2023/03/31 03:02:20;;;;;;;14.03;4.63;;;;;;;-145.69;100.00;52448.34;5072557;28;20573;-79
2023/03/31 03:05:08;;;;;;;13.20;4.20;;;;;;;-145.69;100.00;52436.47;5073169;28;20203;-80
2023/03/31 03:07:42;;;;;;;16.03;4.20;;;;;;;-145.69;100.00;52438.44;5072490;28;20278;-80
2023/03/31 03:10:12;;;;;;;16.47;4.23;;;;;;;-145.69;100.00;52432.50;5072791;28;20222;-80
2023/03/31 03:12:47;;;;;;;13.20;4.70;;;;;;;-145.69;100.00;52416.66;5072636;28;20226;-79
2023/03/31 03:15:21;;;;;;;15.60;4.53;;;;;;;-145.69;100.00;52424.59;5072986;28;20208;-80
2023/03/31 03:17:49;;;;;;;18.37;4.80;;;;;;;-145.69;100.00;52404.78;5072480;28;20281;-80
2023/03/31 03:20:16;;;;;;;23.77;5.10;;;;;;;-145.69;100.00;52408.75;5072312;28;20248;-80
2023/03/31 03:22:42;;;;;;;14.00;4.93;;;;;;;-145.69;100.00;52440.44;5072309;28;20683;-80
2023/03/31 03:25:12;;;;;;;16.63;4.40;;;;;;;-145.69;100.00;52420.63;5072480;28;20728;-80
2023/03/31 03:27:41;;;;;;;21.80;5.20;;;;;;;-145.69;100.00;52446.38;5072563;28;20198;-80
2023/03/31 03:30:10;;;;;;;18.13;4.77;;;;;;;-145.69;100.00;52402.78;5072491;28;20195;-80
2023/03/31 03:32:38;;;;;;;10.17;4.50;;;;;;;-145.69;100.00;52412.69;5072513;28;20222;-80
2023/03/31 03:35:06;;;;;;;16.93;4.70;;;;;;;-145.69;100.00;52416.66;5072427;28;20198;-79
2023/03/31 03:37:32;;;;;;;17.63;4.37;;;;;;;-145.69;100.00;52416.66;5072337;28;20222;-78
2023/03/31 03:39:59;;;;;;;15.50;5.27;;;;;;;-145.69;100.00;52456.28;5072112;28;20201;-79
2023/03/31 03:42:25;;;;;;;17.43;4.90;;;;;;;-145.69;100.00;52424.59;5072257;28;20238;-79
2023/03/31 03:44:52;;;;;;;21.27;4.83;;;;;;;-145.69;100.00;52450.31;5072944;28;20199;-80
2023/03/31 03:47:18;;;;;;;14.73;5.20;;;;;;;-145.69;100.00;52442.41;5072491;28;20202;-80
2023/03/31 03:49:49;;;;;;;22.30;5.30;;;;;;;-145.69;100.00;52398.84;5072426;28;20203;-79
2023/03/31 03:52:15;;;;;;;15.90;4.63;;;;;;;-145.69;100.00;52410.72;5072345;28;20205;-79
2023/03/31 03:54:42;;;;;;;17.07;5.07;;;;;;;-145.69;100.00;52460.22;5072377;28;20203;-81
2023/03/31 03:57:08;;;;;;;11.07;5.03;;;;;;;-145.69;100.00;52444.38;5072394;28;20221;-80
2023/03/31 03:59:35;;;;;;;15.70;4.77;;;;;;;-145.69;100.00;52440.44;5072249;28;20624;-79
2023/03/31 04:02:01;;;;;;;18.80;5.00;;;;;;;-145.69;100.00;52424.59;5071589;28;20197;-80
2023/03/31 04:04:28;;;;;;;16.47;4.83;;;;;;;-145.69;100.00;52458.25;5067791;28;20207;-79
2023/03/31 04:06:55;;;;;;;12.23;4.37;;;;;;;-145.69;100.00;52388.94;5071618;28;20201;-79
2023/03/31 04:09:22;;;;;;;16.07;5.17;;;;;;;-145.69;100.00;52402.78;5072102;28;20191;-79
2023/03/31 04:11:51;;;;;;;11.07;4.70;;;;;;;-145.69;100.00;52456.28;5072273;28;20199;-79
2023/03/31 04:14:18;;;;;;;16.60;4.23;;;;;;;-145.69;100.00;52460.22;5072154;28;20227;-79
2023/03/31 04:16:46;;;;;;;19.90;4.70;;;;;;;-145.69;100.00;52398.84;5072348;28;20203;-79
2023/03/31 04:19:13;;;;;;;14.17;5.00;;;;;;;-145.69;100.00;52438.44;5071952;28;20199;-79
2023/03/31 04:21:44;;;;;;;16.23;4.60;;;;;;;-145.69;100.00;52456.28;5072166;28;20234;-79
2023/03/31 04:24:20;;;;;;;12.67;4.13;;;;;;;-145.69;100.00;52462.22;5072227;28;20233;-80
2023/03/31 04:26:49;;;;;;;15.97;4.70;;;;;;;-145.69;100.00;52420.63;5072092;28;20252;-80
2023/03/31 04:29:18;;;;;;;11.37;4.23;;;;;;;-145.69;100.00;52456.28;5052003;28;20692;-80
2023/03/31 04:31:46;;;;;;;14.53;4.33;;;;;;;-145.69;100.00;52404.78;5058352;28;20201;-80
2023/03/31 04:34:15;;;;;;;18.13;4.27;;;;;;;-145.69;100.00;52420.63;5075436;28;20226;-80
2023/03/31 04:36:45;;;;;;;17.33;4.13;;;;;;;-145.69;100.00;52404.78;5075341;28;20207;-79
2023/03/31 04:39:13;;;;;;;13.37;4.63;;;;;;;-145.69;100.00;52456.28;5075401;28;20248;-80
2023/03/31 04:41:40;;;;;;;9.70;3.60;;;;;;;-145.69;100.00;52408.75;5075333;28;20317;-80
2023/03/31 04:44:06;;;;;;;10.33;3.57;;;;;;;-145.69;100.00;52418.63;5075009;28;20231;-80
2023/03/31 04:46:34;;;;;;;10.13;4.07;;;;;;;-145.69;100.00;52416.66;5075350;28;20210;-80
2023/03/31 04:49:04;;;;;;;16.73;4.77;;;;;;;-145.69;100.00;52424.59;5075716;28;20620;-80
2023/03/31 04:51:31;;;;;;;12.40;4.20;;;;;;;-145.69;100.00;52418.63;5075515;28;20202;-80
2023/03/31 04:53:57;;;;;;;14.53;4.40;;;;;;;-145.69;100.00;52438.44;5074946;28;20245;-80
2023/03/31 04:56:26;;;;;;;12.20;4.17;;;;;;;-145.69;100.00;52420.63;5075339;28;20195;-80
2023/03/31 04:58:52;;;;;;;22.77;4.57;;;;;;;-145.69;100.00;52406.75;5075301;28;20561;-80
2023/03/31 05:01:19;;;;;;;13.70;5.10;;;;;;;-145.69;100.00;52420.63;5073771;28;20496;-80
2023/03/31 05:03:47;;;;;;;15.93;4.80;;;;;;;-145.69;100.00;52388.94;5074226;28;20199;-80
2023/03/31 05:06:14;;;;;;;10.77;4.20;;;;;;;-145.69;100.00;52381.00;5072767;28;20206;-79
2023/03/31 05:08:40;;;;;;;11.27;4.40;;;;;;;-145.69;100.00;52400.81;5075105;28;20203;-80
2023/03/31 05:11:07;;;;;;;12.83;4.00;;;;;;;-145.69;100.00;52428.53;5074845;28;20199;-80
2023/03/31 05:13:38;;;;;;;13.67;4.80;;;;;;;-145.69;100.00;52420.63;5074313;28;20784;-79
2023/03/31 05:16:08;;;;;;;15.73;4.37;;;;;;;-145.69;100.00;52394.88;5075182;28;20203;-80
2023/03/31 05:18:35;;;;;;;13.27;4.30;;;;;;;-145.69;100.00;52436.47;5074960;28;20225;-81
2023/03/31 05:21:12;;;;;;;10.57;4.37;;;;;;;-145.69;100.00;52400.81;5074916;28;20202;-80
2023/03/31 05:23:39;;;;;;;13.03;3.80;;;;;;;-145.69;100.00;52420.63;5074506;28;20269;-80
2023/03/31 05:26:06;;;;;;;14.00;4.23;;;;;;;-145.69;100.00;52394.88;5074285;28;20678;-80
2023/03/31 05:28:33;;;;;;;11.97;4.10;;;;;;;-145.69;100.00;52428.53;5074536;28;20310;-80
2023/03/31 05:31:02;;;;;;;15.37;4.47;;;;;;;-145.69;100.00;52406.75;5074582;28;20205;-79
2023/03/31 05:33:29;;;;;;;11.10;4.80;;;;;;;-145.69;100.00;52420.63;5073670;28;20218;-79
2023/03/31 05:35:55;;;;;;;12.13;4.23;;;;;;;-145.69;100.00;52363.19;5073819;28;20194;-79
2023/03/31 05:38:22;;;;;;;14.17;4.60;;;;;;;-145.69;100.00;52400.81;5074301;28;20287;-79
2023/03/31 05:40:49;;;;;;;13.00;4.97;;;;;;;-145.69;100.00;52416.66;5074277;28;20209;-80
2023/03/31 05:43:16;;;;;;;12.50;4.30;;;;;;;-145.69;100.00;52418.63;5073119;28;20226;-80
2023/03/31 05:45:42;;;;;;;13.83;4.50;;;;;;;-145.69;100.00;52408.75;5073921;28;20205;-80
2023/03/31 05:48:10;;;;;;;14.17;4.23;;;;;;;-145.69;100.00;52424.59;5074193;28;20676;-79
2023/03/31 05:50:36;;;;;;;9.23;4.90;;;;;;;-145.69;100.00;52422.59;5074155;28;20649;-80
2023/03/31 05:53:03;;;;;;;15.00;5.13;;;;;;;-145.69;100.00;52462.22;5073844;28;20213;-79
2023/03/31 05:55:35;;;;;;;15.03;4.77;;;;;;;-145.69;100.00;52390.91;5074287;28;20346;-80
2023/03/31 05:58:02;;;;;;;14.00;4.57;;;;;;;-145.69;100.00;52418.63;5074254;28;20206;-79
2023/03/31 06:00:28;;;;;;;12.83;4.77;;;;;;;-145.69;100.00;52452.31;5074013;28;20221;-80
2023/03/31 06:02:58;;;;;;;15.27;4.57;;;;;;;-145.69;100.00;52428.53;5073077;28;20199;-80
2023/03/31 06:05:26;;;;;;;15.23;5.20;;;;;;;-145.69;100.00;52424.59;5074043;28;20203;-79
2023/03/31 06:07:53;;;;;;;15.73;4.90;;;;;;;-145.69;100.00;52440.44;5073416;28;20268;-80
2023/03/31 06:10:20;;;;;;;10.13;4.33;;;;;;;-145.69;100.00;52412.69;5069658;28;20229;-79
2023/03/31 06:12:47;;;;;;;11.00;4.20;;;;;;;-145.69;100.00;52404.78;5073866;28;20222;-80
2023/03/31 06:15:14;;;;;;;12.13;4.30;;;;;;;-145.69;100.00;52410.72;5073263;28;20223;-79
2023/03/31 06:17:41;;;;;;;12.77;4.30;;;;;;;-145.69;100.00;52416.66;5073502;28;20212;-80
2023/03/31 06:20:08;;;;;;;10.60;4.27;;;;;;;-145.69;100.00;52424.59;5073440;28;20205;-80
2023/03/31 06:22:36;;;;;;;9.27;3.80;;;;;;;-145.69;100.00;52424.59;5073397;28;20210;-80
2023/03/31 06:25:03;;;;;;;8.87;3.40;;;;;;;-145.69;100.00;52412.69;5073715;28;20210;-80
2023/03/31 06:27:29;;;;;;;10.23;3.73;;;;;;;-145.69;100.00;52432.50;5073622;28;20195;-80
2023/03/31 06:29:56;;;;;;;7.80;3.33;;;;;;;-145.69;100.00;52420.63;5073301;28;20195;-80
2023/03/31 06:32:22;;;;;;;5.53;3.30;;;;;;;-145.69;100.00;52434.47;5073293;28;20226;-80
2023/03/31 06:34:51;;;;;;;8.43;3.73;;;;;;;-145.69;100.00;52430.53;5073329;28;20231;-79
2023/03/31 06:37:18;;;;;;;12.80;3.70;;;;;;;-145.69;100.00;52416.66;5073193;28;20195;-80
2023/03/31 06:39:45;;;;;;;9.13;3.23;;;;;;;-145.69;100.00;52418.63;5073085;28;20191;-80
2023/03/31 06:42:12;;;;;;;9.63;3.73;;;;;;;-145.69;100.00;52412.69;5072181;28;20442;-79
2023/03/31 06:44:38;;;;;;;10.73;3.93;;;;;;;-145.69;100.00;52392.91;5073347;28;20207;-80
2023/03/31 06:47:05;;;;;;;10.43;3.50;;;;;;;-145.69;100.00;52392.91;5073074;28;20198;-81
2023/03/31 06:49:32;;;;;;;12.83;3.57;;;;;;;-145.69;100.00;52406.75;5073190;28;20260;-80
2023/03/31 06:52:00;;;;;;;10.43;3.97;;;;;;;-145.69;100.00;52446.38;5072809;28;20206;-80
2023/03/31 06:54:28;;;;;;;9.03;3.10;;;;;;;-145.69;100.00;52430.53;5073029;28;20231;-79
2023/03/31 06:56:56;;;;;;;6.43;2.27;;;;;;;-145.69;100.00;52468.16;5073195;28;20211;-80
2023/03/31 06:59:22;;;;;;;4.53;2.40;;;;;;;-145.69;100.00;52448.34;5073110;28;20203;-81
2023/03/31 07:01:49;;;;;;;7.80;2.53;;;;;;;-145.69;100.00;52434.47;5072051;28;20193;-80
2023/03/31 07:04:16;;;;;;;3.40;1.90;;;;;;;-145.69;100.00;52424.59;5072892;28;20201;-80
2023/03/31 07:06:42;;;;;;;4.30;1.90;;;;;;;-145.69;100.00;52452.31;5072744;28;20194;-79
2023/03/31 07:09:10;;;;;;;5.33;1.97;;;;;;;-145.69;100.00;52396.84;5073218;28;20202;-79
2023/03/31 07:11:37;;;;;;;7.43;2.17;;;;;;;-145.69;100.00;52420.63;5072726;28;20620;-80
2023/03/31 07:14:05;;;;;;;1.70;1.37;;;;;;;-145.69;100.00;52444.38;5072927;28;20230;-80
2023/03/31 07:16:31;;;;;;;4.77;1.70;;;;;;;-145.69;100.00;52454.28;5072755;28;20199;-79
2023/03/31 07:19:02;;;;;;;3.57;1.30;;;;;;;-145.69;100.00;52422.59;5073033;28;20195;-80
2023/03/31 07:21:29;;;;;;;1.37;1.10;;;;;;;-145.69;100.00;52432.50;5072741;28;20203;-79
2023/03/31 07:23:55;;;;;;;2.30;1.10;;;;;;;-145.69;100.00;52426.56;5072737;28;20240;-79
2023/03/31 07:26:22;;;;;;;3.50;1.17;;;;;;;-145.69;100.00;52444.38;5072921;28;20245;-80
2023/03/31 07:28:49;;;;;;;1.00;0.83;;;;;;;-145.69;100.00;52460.22;5072876;28;20230;-80
2023/03/31 07:31:17;;;;;;;1.40;0.70;;;;;;;-145.69;100.00;52456.28;5072089;28;20205;-79
2023/03/31 07:33:44;;;;;;;1.10;1.00;;;;;;;-145.69;100.00;52432.50;5072777;28;20226;-79
2023/03/31 07:36:10;;;;;;;1.30;1.00;;;;;;;-145.69;100.00;52412.69;5072524;28;20203;-79
2023/03/31 07:38:37;;;;;;;1.60;1.03;;;;;;;-145.69;100.00;52434.47;5072610;28;20213;-79
2023/03/31 07:41:12;;;;;;;3.33;1.00;;;;;;;-145.69;100.00;52448.34;5072331;28;20278;-80
2023/03/31 07:43:41;;;;;;;3.03;0.90;;;;;;;-145.69;100.00;52442.41;5072154;28;20634;-80
2023/03/31 07:46:19;;;;;;;1.43;1.03;;;;;;;-145.69;100.00;52432.50;5072422;28;20205;-79
2023/03/31 07:48:46;;;;;;;3.90;1.00;;;;;;;-145.69;100.00;52438.44;5072922;28;20198;-80
2023/03/31 07:51:13;;;;;;;3.20;1.13;;;;;;;-145.69;100.00;52408.75;5072784;28;20202;-80
2023/03/31 07:53:40;;;;;;;2.20;0.80;;;;;;;-145.69;100.00;52398.84;5072466;28;20227;-80
2023/03/31 07:56:07;;;;;;;1.70;1.00;;;;;;;-145.69;100.00;52412.69;5071570;28;20546;-79
2023/03/31 07:58:33;;;;;;;1.83;1.07;;;;;;;-145.69;100.00;52406.75;5072403;28;20206;-80
2023/03/31 08:01:03;;;;;;;1.33;0.75;;;;;;;-145.69;100.00;52420.63;5071818;28;20445;-79
2023/03/31 08:03:31;;;;;;;1.13;0.90;;;;;;;-145.69;100.00;52418.63;5071689;28;20198;-80
2023/03/31 08:05:57;;;;;;;2.40;0.90;;;;;;;-145.69;100.00;52420.63;5072024;28;20550;-79
2023/03/31 08:08:24;;;;;;;3.13;0.90;;;;;;;-145.69;100.00;52406.75;5075640;28;20210;-79
2023/03/31 08:10:50;;;;;;;3.67;0.90;;;;;;;-145.69;100.00;52416.66;5075491;28;20191;-80
2023/03/31 08:13:17;;;;;;;4.30;1.03;;;;;;;-145.69;100.00;52404.78;5076116;28;20653;-79
2023/03/31 08:15:44;;;;;;;1.67;1.00;;;;;;;-145.69;100.00;52420.63;5075744;28;20233;-79
2023/03/31 08:18:10;;;;;;;1.33;0.93;;;;;;;-145.69;100.00;52392.91;5073619;28;20206;-80
2023/03/31 08:20:38;;;;;;;0.73;0.73;;;;;;;-145.69;100.00;52392.91;5064802;28;20202;-78
2023/03/31 08:23:07;;;;;;;0.90;0.90;;;;;;;-145.69;100.00;52394.88;5055787;28;20226;-80
2023/03/31 08:25:34;;;;;;;1.20;0.80;;;;;;;-145.69;100.00;52428.53;5059700;28;20278;-79
2023/03/31 08:28:00;;;;;;;1.33;0.83;;;;;;;-145.69;100.00;52408.75;5075395;28;20309;-79
2023/03/31 08:30:27;;;;;;;1.90;0.83;;;;;;;-145.69;100.00;52402.78;5075765;28;20624;-79
2023/03/31 08:32:53;;;;;;;1.53;0.70;;;;;;;-145.69;100.00;52392.91;5075970;28;20198;-77
2023/03/31 08:35:20;;;;;;;1.40;0.83;;;;;;;-145.69;100.00;52379.03;5075695;28;20226;-79
2023/03/31 08:37:48;;;;;;;3.33;1.00;;;;;;;-145.69;100.00;52404.78;5075397;28;20553;-79
2023/03/31 08:40:18;;;;;;;1.90;0.60;;;;;;;-145.69;100.00;52416.66;5075491;28;20542;-80
2023/03/31 08:42:48;;;;;;;3.70;0.80;;;;;;;-145.69;100.00;52386.97;5075320;28;20235;-80
2023/03/31 08:45:21;;;;;;;2.70;0.70;;;;;;;-145.69;100.00;52377.06;5075899;28;20225;-79
2023/03/31 08:47:52;;;;;;;1.23;0.90;;;;;;;-145.69;100.00;52375.06;5075238;28;20206;-78
2023/03/31 08:50:23;;;;;;;2.20;1.00;;;;;;;-145.69;100.00;52396.84;5075228;28;20641;-77
2023/03/31 08:52:59;;;;;;;1.80;0.90;;;;;;;-145.69;100.00;52388.94;5075517;28;20203;-77
2023/03/31 08:55:31;;;;;;;4.43;1.17;;;;;;;-145.69;100.00;52365.16;5075119;28;20236;-76
2023/03/31 08:58:01;;;;;;;3.03;1.10;;;;;;;-145.69;100.00;52367.16;5075234;28;20206;-76
2023/03/31 09:00:34;;;;;;;3.10;0.90;;;;;;;-145.69;100.00;52384.97;5075277;28;20806;-79
2023/03/31 09:03:10;;;;;;;2.03;1.00;;;;;;;-145.69;100.00;52390.91;5075243;28;20198;-76
2023/03/31 09:05:57;;;;;;;3.60;1.20;;;;;;;-145.69;100.00;52381.00;5075408;28;20285;-77
2023/03/31 09:08:33;;;;;;;2.83;1.10;;;;;;;-145.69;100.00;52369.13;5075581;28;20190;-79
2023/03/31 09:11:10;;;;;;;6.20;1.23;;;;;;;-145.69;100.00;52386.97;5074982;28;20255;-80
2023/03/31 09:13:53;;;;;;;4.60;1.07;;;;;;;-145.69;100.00;52375.06;5074952;28;20210;-80
2023/03/31 09:16:25;;;;;;;1.37;1.00;;;;;;;-145.69;100.00;52373.09;5075262;28;20203;-82
2023/03/31 09:18:55;;;;;;;3.60;1.10;;;;;;;-145.69;100.00;52377.06;5073972;28;20684;-81
2023/03/31 09:21:28;;;;;;;3.67;1.37;;;;;;;-145.69;100.00;52345.38;5074862;28;20199;-79
2023/03/31 09:24:03;;;;;;;2.47;1.03;;;;;;;-145.69;100.00;52367.16;5072555;28;20224;-80
2023/03/31 09:26:37;;;;;;;4.23;1.30;;;;;;;-145.69;100.00;52381.00;5074247;28;20197;-79
2023/03/31 09:29:07;;;;;;;4.10;1.03;;;;;;;-145.69;100.00;52396.84;5074823;28;20281;-80
2023/03/31 09:31:34;;;;;;;2.90;0.90;;;;;;;-145.69;100.00;52386.97;5074611;28;20198;-80
2023/03/31 09:34:09;;;;;;;3.13;1.10;;;;;;;-145.69;98.31;52351.31;5073640;28;20195;-80
2023/03/31 09:36:35;;;;;;;5.57;1.80;;;;;;;-145.69;100.00;52357.25;5087965;28;20671;-79
2023/03/31 09:39:04;;;;;;;3.97;1.00;;;;;;;-145.69;98.22;52365.16;5094464;28;20662;-81
2023/03/31 09:41:31;;;;;;;7.33;1.20;;;;;;;-145.69;99.78;52343.38;5094548;28;20687;-79
2023/03/31 09:43:57;;;;;;;5.00;1.20;;;;;;;-145.69;100.00;52396.84;5076776;28;20226;-80
2023/03/31 09:46:29;;;;;;;5.47;1.33;;;;;;;-145.69;100.00;52388.94;5073994;28;20206;-80
2023/03/31 09:49:03;;;;;;;6.37;1.30;;;;;;;-145.69;100.00;52369.13;5073945;28;20202;-79
2023/03/31 09:51:36;;;;;;;4.37;1.10;;;;;;;-145.69;100.00;52371.13;5074089;28;20720;-80
2023/03/31 09:54:14;;;;;;;4.30;1.47;;;;;;;-145.69;95.00;52369.13;5073959;28;20553;-79
2023/03/31 09:56:49;;;;;;;4.77;1.20;;;;;;;-145.69;92.55;52383.00;5073791;28;20187;-79
2023/03/31 09:59:17;;;;;;;3.43;1.20;;;;;;;-145.69;92.44;52359.22;5073784;28;20195;-79
2023/03/31 10:01:46;;;;;;;10.63;1.50;;;;;;;-145.69;89.76;52353.28;5073895;28;20195;-79
2023/03/31 10:04:21;;;;;;;3.80;1.10;;;;;;;-145.69;82.05;52365.16;5073140;28;20205;-78
2023/03/31 10:06:52;;;;;;;2.45;1.08;;;;;;;-145.69;75.41;52355.28;5073949;28;20250;-78
2023/03/31 10:09:32;;;;;;;4.72;1.20;;;;;;;-145.69;79.54;52373.09;5073725;28;20471;-78
2023/03/31 10:12:02;;;;;;;6.03;1.40;;;;;;;-145.69;78.28;52363.19;5072348;28;20205;-79
2023/03/31 10:14:39;;;;;;;4.13;1.00;;;;;;;-145.69;73.35;52345.38;5053530;28;20230;-80
2023/03/31 10:17:06;;;;;;;4.68;1.10;;;;;;;-145.69;70.26;52325.56;5054410;28;20202;-80
2023/03/31 10:19:35;;;;;;;5.22;1.30;;;;;;;-145.69;67.97;52333.47;5058658;28;20290;-81
2023/03/31 10:22:03;;;;;;;6.25;1.27;;;;;;;-145.69;71.92;52341.41;5073854;28;20194;-80
2023/03/31 10:24:39;;;;;;;8.45;1.33;;;;;;;-145.69;71.30;52373.09;5074307;28;20202;-80
2023/03/31 10:27:14;;;;;;;6.30;1.52;;;;;;;-145.69;71.14;52335.47;5069778;28;20286;-79
2023/03/31 10:29:40;;;;;;;2.15;1.10;;;;;;;-145.69;74.19;52341.41;5072757;28;20657;-79
2023/03/31 10:32:14;;;;;;;4.50;1.40;;;;;;;-145.69;70.62;52349.31;5073439;28;20572;-80
2023/03/31 10:34:42;;;;;;;3.70;1.23;;;;;;;-145.69;62.89;52321.59;5073321;28;20659;-79
2023/03/31 10:37:14;;;;;;;5.60;1.10;;;;;;;-145.69;66.92;52345.38;5073799;28;20194;-80
2023/03/31 10:39:44;;;;;;;4.43;1.13;;;;;;;-145.69;59.01;52337.44;5073124;28;20198;-80
2023/03/31 10:42:11;;;;;;;4.78;1.05;;;;;;;-145.69;57.60;52361.22;5073202;28;20249;-80
2023/03/31 10:44:39;;;;;;;8.57;1.05;;;;;;;-145.69;63.64;52297.84;5072925;28;20202;-80
2023/03/31 10:47:18;;;;;;;4.38;0.90;;;;;;;-145.69;57.37;52321.59;5073282;28;20195;-78
2023/03/31 10:49:50;;;;;;;6.72;1.20;;;;;;;-145.69;55.59;52315.66;5072824;28;20190;-80
2023/03/31 10:52:20;;;;;;;9.40;1.20;;;;;;;-145.69;53.61;52327.53;5073346;28;20202;-78
2023/03/31 10:54:49;;;;;;;3.38;1.33;;;;;;;-145.69;54.87;52345.38;5072881;28;20677;-80
2023/03/31 10:57:18;;;;;;;9.05;1.52;;;;;;;-145.69;56.87;52301.81;5073129;28;20234;-79
2023/03/31 10:59:58;;;;;;;4.25;1.10;;;;;;;-145.69;50.91;52293.88;5073023;28;20198;-79
2023/03/31 11:03:13;;;;;;;7.30;1.40;;;;;;;-145.69;50.09;52293.88;5071936;28;20426;-81
2023/03/31 11:05:46;;;;;;;4.45;0.93;;;;;;;-145.69;48.22;52307.75;5011300;28;20201;-79
2023/03/31 11:08:27;;;;;;;5.05;1.25;;;;;;;-145.69;47.17;52305.75;5068796;28;20284;-79
2023/03/31 11:11:08;;;;;;;7.35;1.67;;;;;;;-145.69;45.85;52301.81;5072769;28;20198;-78
2023/03/31 11:13:42;;;;;;;5.38;1.23;;;;;;;-145.69;45.59;52315.66;5073301;28;20199;-79
2023/03/31 11:16:19;;;;;;;6.95;1.30;;;;;;;-145.69;47.07;52311.69;5072588;28;20313;-81
2023/03/31 11:19:03;;;;;;;7.78;1.52;;;;;;;-145.69;46.68;52345.38;5073188;28;20198;-79
2023/03/31 11:21:43;;;;;;;6.80;1.17;;;;;;;-145.69;48.02;52299.81;5072608;28;20210;-78
2023/03/31 11:24:17;;;;;;;7.70;1.00;;;;;;;-145.69;71.62;52349.31;5073016;28;20553;-80